Time;durP1;ratioP1;P1;durP2;ratioP2;P2;SDS_P1;SDS_P2;PMS_P1;PMS_P2;Temp;Humidity;BMP_temperature;BMP_pressure;BME280_temperature;BME280_humidity;BME280_pressure;Samples;Min_cycle;Max_cycle;Signal;HPM_P1;HPM_P2
2023/09/25 00:01:15;;;;;;;1.00;1.00;;;;;;;10.80;91.36;102066.22;5044660;22;20048;-80
2023/09/25 00:03:41;;;;;;;0.80;0.80;;;;;;;10.75;91.42;102064.47;5072288;28;20029;-80
2023/09/25 00:06:06;;;;;;;1.57;1.47;;;;;;;10.75;91.16;102064.47;5072297;28;20043;-80
2023/09/25 00:08:31;;;;;;;1.30;1.20;;;;;;;10.74;91.60;102070.50;5071579;28;20037;-80
2023/09/25 00:10:57;;;;;;;1.13;1.13;;;;;;;10.73;91.38;102063.56;5072661;28;20078;-80
2023/09/25 00:13:25;;;;;;;1.30;1.20;;;;;;;10.71;91.72;102067.91;5072134;28;20028;-80
2023/09/25 00:15:50;;;;;;;0.90;0.90;;;;;;;10.66;91.55;102067.88;5072055;28;20045;-80
2023/09/25 00:18:16;;;;;;;0.87;0.87;;;;;;;10.65;91.63;102066.13;5072303;28;20432;-80
2023/09/25 00:20:41;;;;;;;0.90;0.90;;;;;;;10.61;92.00;102065.25;5072686;28;20021;-80
2023/09/25 00:23:07;;;;;;;0.97;0.97;;;;;;;10.57;91.56;102060.06;5070965;28;20421;-80
2023/09/25 00:25:32;;;;;;;1.47;1.10;;;;;;;10.58;92.25;102067.00;5052321;28;20025;-80
2023/09/25 00:28:02;;;;;;;1.40;1.30;;;;;;;10.53;92.87;102066.97;5052214;28;20032;-80
2023/09/25 00:30:27;;;;;;;1.17;0.90;;;;;;;10.56;91.76;102069.59;5055420;28;20020;-80
2023/09/25 00:32:53;;;;;;;1.17;1.10;;;;;;;10.56;91.87;102074.78;5072432;28;20020;-80
2023/09/25 00:35:20;;;;;;;1.00;1.00;;;;;;;10.55;93.12;102070.44;5072112;28;20029;-80
2023/09/25 00:37:45;;;;;;;;;;;;;;;10.51;92.04;102063.50;5072022;28;20390;-80
2023/09/25 00:40:14;;;;;;;0.90;0.90;;;;;;;10.50;92.06;102065.25;5072079;28;19912;-80
2023/09/25 00:42:49;;;;;;;1.02;1.02;;;;;;;10.49;91.66;102068.69;5072384;28;20028;-80
2023/09/25 00:45:14;;;;;;;1.08;0.98;;;;;;;10.49;92.50;102067.81;5072317;28;20040;-80
2023/09/25 00:47:41;;;;;;;1.47;1.37;;;;;;;10.50;91.86;102075.63;5072139;28;20024;-80
2023/09/25 00:50:08;;;;;;;1.40;1.30;;;;;;;10.39;91.68;102053.94;5069920;28;20029;-80
2023/09/25 00:52:34;;;;;;;1.48;1.38;;;;;;;10.50;91.76;102075.63;5072266;28;20032;-80
2023/09/25 00:55:01;;;;;;;1.40;1.30;;;;;;;10.47;92.17;102066.97;5055203;28;20106;-80
2023/09/25 00:57:28;;;;;;;1.33;1.23;;;;;;;10.47;91.75;102070.41;5051397;28;20442;-80
2023/09/25 00:59:53;;;;;;;;;;;;;;;10.45;92.42;102071.25;5056548;28;20429;-80
2023/09/25 01:02:18;;;;;;;2.37;1.43;;;;;;;10.37;92.95;102068.59;5052605;28;19923;-80
2023/09/25 01:04:44;;;;;;;1.40;1.30;;;;;;;10.39;92.04;102074.69;5054750;28;20021;-80
2023/09/25 01:07:09;;;;;;;1.47;1.23;;;;;;;10.38;92.01;102074.66;5055512;28;20029;-80
2023/09/25 01:09:34;;;;;;;1.47;1.37;;;;;;;10.33;92.61;102067.72;5055981;28;20087;-80
2023/09/25 01:12:00;;;;;;;1.40;1.30;;;;;;;10.32;92.72;102071.16;5055211;28;20025;-80
2023/09/25 01:14:25;;;;;;;1.33;1.23;;;;;;;10.27;92.36;102074.59;5055232;28;20359;-80
2023/09/25 01:16:51;;;;;;;1.30;1.13;;;;;;;10.32;92.81;102086.72;5055874;28;20116;-80
2023/09/25 01:19:16;;;;;;;1.80;1.23;;;;;;;10.31;92.78;102081.50;5054802;28;20060;-80
2023/09/25 01:21:47;;;;;;;1.30;1.20;;;;;;;10.24;92.39;102072.84;5055672;28;20029;-80
2023/09/25 01:24:13;;;;;;;1.50;1.40;;;;;;;10.26;92.22;102078.91;5054810;28;20025;-80
2023/09/25 01:26:38;;;;;;;1.50;1.40;;;;;;;10.22;92.05;102071.09;5054365;28;20033;-80
2023/09/25 01:29:04;;;;;;;1.77;1.40;;;;;;;10.22;93.15;102069.38;5055373;28;20104;-80
2023/09/25 01:31:29;;;;;;;1.40;1.30;;;;;;;10.23;92.97;102068.53;5055749;28;20462;-80
2023/09/25 01:33:54;;;;;;;1.53;1.43;;;;;;;10.10;92.61;102043.38;5054594;28;20025;-80
2023/09/25 01:36:20;;;;;;;1.13;1.10;;;;;;;10.17;92.95;102060.69;5055069;28;20028;-80
2023/09/25 01:38:48;;;;;;;1.23;1.13;;;;;;;10.21;92.70;102067.63;5055146;28;20025;-80
2023/09/25 01:41:17;;;;;;;1.30;1.20;;;;;;;10.14;92.67;102056.34;5054068;28;20013;-80
2023/09/25 01:43:43;;;;;;;1.13;1.00;;;;;;;10.19;92.71;102066.75;5055292;28;20033;-80
2023/09/25 01:46:08;;;;;;;1.30;1.20;;;;;;;10.10;93.18;102056.34;5054204;28;20104;-80
2023/09/25 01:48:34;;;;;;;1.30;1.20;;;;;;;10.14;92.92;102065.84;5054993;28;20160;-80
2023/09/25 01:50:59;;;;;;;1.13;1.03;;;;;;;10.12;92.70;102070.19;5054625;28;20067;-80
2023/09/25 01:53:27;;;;;;;1.47;1.00;;;;;;;10.04;93.04;102063.19;5054164;28;20139;-80
2023/09/25 01:55:52;;;;;;;1.33;1.23;;;;;;;10.07;92.63;102064.97;5055036;28;20029;-81
2023/09/25 01:58:18;;;;;;;1.13;1.13;;;;;;;10.05;92.81;102070.13;5055007;28;20043;-80
2023/09/25 02:00:46;;;;;;;1.73;1.30;;;;;;;10.00;92.93;102069.25;5053841;28;20036;-80
2023/09/25 02:03:11;;;;;;;0.80;0.80;;;;;;;10.00;93.04;102064.06;5054219;28;20044;-80
2023/09/25 02:05:36;;;;;;;1.17;1.00;;;;;;;9.99;92.80;102066.63;5054798;28;20101;-80
2023/09/25 02:08:02;;;;;;;0.90;0.90;;;;;;;9.88;92.62;102045.81;5053880;28;20053;-80
2023/09/25 02:10:28;;;;;;;1.23;1.13;;;;;;;9.98;92.75;102064.88;5054785;28;20021;-80
2023/09/25 02:12:53;;;;;;;1.03;1.03;;;;;;;9.93;92.92;102062.25;5054855;28;20072;-80
2023/09/25 02:15:37;;;;;;;1.13;1.03;;;;;;;9.91;92.89;102055.34;5049006;28;20029;-80
2023/09/25 02:18:17;;;;;;;1.05;0.93;;;;;;;9.80;92.78;102037.09;5054446;28;20021;-80
2023/09/25 02:21:14;;;;;;;1.13;1.02;;;;;;;9.90;93.12;102051.88;5054855;28;20040;-80
2023/09/25 02:23:42;;;;;;;1.58;1.40;;;;;;;9.82;92.68;102031.09;5054065;28;20036;-80
2023/09/25 02:26:07;;;;;;;1.38;1.27;;;;;;;9.86;93.27;102042.34;5053997;28;20025;-80
2023/09/25 02:28:33;;;;;;;1.73;1.40;;;;;;;9.88;92.84;102051.00;5053362;28;20040;-80
2023/09/25 02:30:58;;;;;;;1.53;1.40;;;;;;;9.87;92.75;102055.31;5054357;28;20112;-80
2023/09/25 02:33:23;;;;;;;1.80;1.70;;;;;;;9.88;92.81;102053.59;5053997;28;20381;-81
2023/09/25 02:35:49;;;;;;;1.50;1.37;;;;;;;9.91;93.05;102063.13;5053191;28;20037;-80
2023/09/25 02:38:17;;;;;;;1.23;1.10;;;;;;;9.85;93.33;102045.78;5054101;28;20029;-80
2023/09/25 02:40:42;;;;;;;1.35;1.25;;;;;;;9.87;93.35;102057.91;5054173;28;20025;-80
2023/09/25 02:43:07;;;;;;;1.70;1.60;;;;;;;9.82;93.29;102045.75;5053043;28;20024;-80
2023/09/25 02:45:33;;;;;;;1.00;1.00;;;;;;;9.84;93.29;102047.53;5053799;28;20111;-80
2023/09/25 02:47:58;;;;;;;1.80;1.40;;;;;;;9.87;94.02;102054.44;5054055;28;20025;-80
2023/09/25 02:50:24;;;;;;;2.90;1.50;;;;;;;9.78;94.52;102041.44;5052783;28;20021;-80
2023/09/25 02:52:49;;;;;;;1.20;1.10;;;;;;;9.79;94.51;102054.38;5053867;28;20021;-80
2023/09/25 02:55:15;;;;;;;1.60;1.50;;;;;;;9.76;94.87;102045.72;5053119;28;20475;-80
2023/09/25 02:57:40;;;;;;;1.60;1.43;;;;;;;9.74;93.57;102051.78;5052738;28;20112;-80
2023/09/25 03:00:11;;;;;;;1.70;1.60;;;;;;;9.76;94.45;102048.31;5053968;28;20017;-80
2023/09/25 03:02:37;;;;;;;1.77;1.60;;;;;;;9.76;94.44;102043.13;5068254;28;20040;-80
2023/09/25 03:05:05;;;;;;;2.50;1.70;;;;;;;9.76;94.32;102045.72;5072991;28;20067;-79
2023/09/25 03:07:30;;;;;;;2.40;1.58;;;;;;;9.74;94.71;102048.28;5073296;28;20461;-80
2023/09/25 03:09:55;;;;;;;2.00;1.80;;;;;;;9.72;95.27;102053.47;5073790;28;20027;-80
2023/09/25 03:12:21;;;;;;;1.93;1.70;;;;;;;9.72;94.70;102050.88;5072248;28;20484;-80
2023/09/25 03:14:46;;;;;;;1.37;1.27;;;;;;;9.70;93.93;102047.41;5073257;28;20115;-80
2023/09/25 03:17:12;;;;;;;1.53;1.43;;;;;;;9.70;94.80;102042.22;5073490;28;20028;-80
2023/09/25 03:19:38;;;;;;;2.17;1.60;;;;;;;9.76;94.39;102049.16;5072690;28;20044;-80
2023/09/25 03:22:04;;;;;;;1.90;1.58;;;;;;;9.76;94.63;102056.94;5062308;28;20143;-80
2023/09/25 03:24:30;;;;;;;2.10;1.67;;;;;;;9.66;94.21;102029.22;5053238;28;20040;-80
2023/09/25 03:26:55;;;;;;;1.92;1.50;;;;;;;9.70;94.81;102042.22;5052747;28;20430;-80
2023/09/25 03:29:21;;;;;;;1.87;1.60;;;;;;;9.77;94.31;102039.69;5052617;28;20021;-80
2023/09/25 03:31:46;;;;;;;1.80;1.70;;;;;;;9.68;94.19;102030.13;5052322;28;20021;-80
2023/09/25 03:34:12;;;;;;;1.83;1.63;;;;;;;9.80;93.95;102048.34;5052949;28;20211;-80
2023/09/25 03:36:37;;;;;;;2.13;1.80;;;;;;;9.79;93.62;102044.03;5053235;28;20025;-81
2023/09/25 03:39:05;;;;;;;3.37;1.83;;;;;;;9.83;94.67;102052.69;5052026;28;20373;-80
2023/09/25 03:41:31;;;;;;;2.65;1.63;;;;;;;9.83;93.66;102050.09;5052980;28;20382;-81
2023/09/25 03:43:56;;;;;;;2.10;1.90;;;;;;;9.85;94.34;102044.06;5052763;28;20025;-80
2023/09/25 03:46:21;;;;;;;1.70;1.60;;;;;;;9.81;93.91;102038.84;5052125;28;20307;-80
2023/09/25 03:48:47;;;;;;;1.83;1.73;;;;;;;9.82;94.43;102044.06;5052698;28;20175;-80
2023/09/25 03:51:12;;;;;;;2.17;1.90;;;;;;;9.81;93.18;102041.44;5052598;28;20434;-80
2023/09/25 03:53:37;;;;;;;2.67;1.73;;;;;;;9.81;94.12;102047.50;5051805;28;20561;-80
2023/09/25 03:56:03;;;;;;;1.93;1.57;;;;;;;9.83;93.80;102047.50;5052090;28;20021;-80
2023/09/25 03:58:28;;;;;;;1.70;1.60;;;;;;;9.80;94.39;102050.06;5052888;28;20526;-81
2023/09/25 04:00:53;;;;;;;2.07;1.60;;;;;;;9.81;93.10;102051.78;5051459;28;20029;-80
2023/09/25 04:03:19;;;;;;;1.87;1.53;;;;;;;9.78;94.34;102050.06;5032482;28;20025;-80
2023/09/25 04:05:44;;;;;;;3.67;1.90;;;;;;;9.81;95.17;102059.56;5033454;28;20060;-80
2023/09/25 04:08:10;;;;;;;1.83;1.73;;;;;;;9.81;93.97;102062.16;5032234;28;20057;-81
2023/09/25 04:10:38;;;;;;;2.93;2.03;;;;;;;9.86;93.77;102068.28;5032749;28;20397;-80
2023/09/25 04:13:04;;;;;;;2.17;1.77;;;;;;;9.85;93.66;102058.75;5032587;28;20482;-80
2023/09/25 04:15:31;;;;;;;3.90;2.20;;;;;;;9.88;93.88;102061.38;5031741;28;20437;-80
2023/09/25 04:17:57;;;;;;;;;;;;;;;9.89;93.41;102060.53;5033022;28;20109;-80
2023/09/25 04:20:25;;;;;;;2.22;1.90;;;;;;;9.86;93.98;102060.50;5032635;28;19924;-80
2023/09/25 04:22:56;;;;;;;1.92;1.67;;;;;;;9.85;93.64;102064.78;5048088;28;20135;-80
2023/09/25 04:25:24;;;;;;;4.60;2.47;;;;;;;9.86;93.86;102058.75;5052194;28;20436;-80
2023/09/25 04:27:54;;;;;;;2.22;1.80;;;;;;;9.87;94.38;102057.91;5052646;28;20378;-80
2023/09/25 04:30:20;;;;;;;1.73;1.63;;;;;;;9.88;93.82;102069.16;5052118;28;20025;-80
2023/09/25 04:32:48;;;;;;;1.98;1.60;;;;;;;9.95;93.16;102070.06;5053206;28;20120;-79
2023/09/25 04:35:15;;;;;;;1.83;1.60;;;;;;;9.89;93.54;102066.56;5055472;28;20033;-79
2023/09/25 04:37:41;;;;;;;1.75;1.63;;;;;;;9.92;93.78;102063.13;5056260;28;20026;-78
2023/09/25 04:40:14;;;;;;;2.78;1.90;;;;;;;9.86;93.77;102063.94;5056348;28;20025;-78
2023/09/25 04:42:41;;;;;;;2.67;1.70;;;;;;;9.88;94.43;102079.53;5055816;28;20099;-77
2023/09/25 04:45:12;;;;;;;2.03;1.70;;;;;;;9.88;94.48;102076.94;5056405;28;20475;-78
2023/09/25 04:47:38;;;;;;;1.50;1.40;;;;;;;9.84;93.96;102067.38;5056580;28;20075;-78
2023/09/25 04:50:05;;;;;;;1.90;1.60;;;;;;;9.83;94.85;102069.13;5055396;28;20029;-78
2023/09/25 04:52:31;;;;;;;;;;;;;;;9.85;93.92;102074.31;5056520;28;20071;-81
2023/09/25 04:54:57;;;;;;;1.60;1.50;;;;;;;9.82;93.97;102075.16;5056143;28;20387;-80
2023/09/25 04:57:22;;;;;;;2.97;1.50;;;;;;;9.85;93.66;102072.56;5055078;28;20029;-80
2023/09/25 04:59:47;;;;;;;1.67;1.57;;;;;;;9.85;93.81;102080.34;5055504;28;20025;-79
2023/09/25 05:02:13;;;;;;;1.50;1.40;;;;;;;9.85;93.55;102079.50;5066733;28;20123;-80
2023/09/25 05:04:41;;;;;;;2.00;1.73;;;;;;;9.85;93.43;102074.31;5075016;28;20048;-80
2023/09/25 05:07:07;;;;;;;1.63;1.40;;;;;;;9.84;93.25;102077.75;5074522;28;20025;-79
2023/09/25 05:09:32;;;;;;;1.80;1.50;;;;;;;9.80;93.69;102076.88;5063775;28;20028;-80
2023/09/25 05:12:00;;;;;;;1.30;1.20;;;;;;;9.83;93.86;102076.91;5062466;28;20028;-79
2023/09/25 05:14:26;;;;;;;1.70;1.60;;;;;;;9.68;93.94;102054.28;5075492;28;20046;-80
2023/09/25 05:16:52;;;;;;;1.17;1.03;;;;;;;9.80;94.03;102086.34;5075338;28;20500;-80
2023/09/25 05:19:20;;;;;;;1.58;1.48;;;;;;;9.79;93.29;102077.72;5066199;28;20047;-80
2023/09/25 05:21:54;;;;;;;1.40;1.30;;;;;;;9.79;93.68;102082.06;5056100;28;20107;-79
2023/09/25 05:24:26;;;;;;;1.08;1.00;;;;;;;9.76;93.68;102082.03;5054318;28;20064;-80
2023/09/25 05:27:10;;;;;;;1.45;1.35;;;;;;;9.65;94.38;102067.25;5053877;28;20041;-80
2023/09/25 05:29:36;;;;;;;1.73;1.48;;;;;;;9.78;93.47;102093.28;5055444;28;20039;-80
2023/09/25 05:32:19;;;;;;;1.47;1.37;;;;;;;9.75;93.67;102088.91;5054900;28;20116;-81
2023/09/25 05:34:47;;;;;;;1.20;1.10;;;;;;;9.68;93.99;102076.78;5055486;28;20028;-81
2023/09/25 05:37:12;;;;;;;1.48;1.20;;;;;;;9.69;93.78;102081.97;5054878;28;20382;-81
2023/09/25 05:39:37;;;;;;;0.97;0.97;;;;;;;9.71;93.75;102089.75;5054457;28;20031;-80
2023/09/25 05:42:03;;;;;;;1.13;1.03;;;;;;;9.64;93.46;102070.69;5055203;28;20025;-80
2023/09/25 05:44:28;;;;;;;1.40;1.30;;;;;;;9.66;93.84;102073.28;5054810;28;20053;-80
2023/09/25 05:46:56;;;;;;;1.40;1.30;;;;;;;9.74;94.02;102087.19;5054736;28;20032;-81
2023/09/25 05:49:21;;;;;;;1.48;1.38;;;;;;;9.76;94.04;102090.66;5046631;28;20029;-80
2023/09/25 05:51:46;;;;;;;1.47;1.20;;;;;;;9.78;93.92;102093.28;5035014;28;20021;-81
2023/09/25 05:54:12;;;;;;;2.07;1.27;;;;;;;9.77;93.73;102089.81;5033955;28;20386;-81
2023/09/25 05:56:38;;;;;;;1.30;1.20;;;;;;;9.81;94.21;102094.16;5034927;28;20040;-79
2023/09/25 05:59:03;;;;;;;1.40;1.30;;;;;;;9.84;93.88;102085.53;5034481;28;20022;-78
2023/09/25 06:01:28;;;;;;;1.50;1.40;;;;;;;9.82;94.49;102087.25;5041600;28;20040;-81
2023/09/25 06:03:54;;;;;;;1.40;1.30;;;;;;;9.83;93.78;102089.88;5068651;28;20078;-79
2023/09/25 06:06:19;;;;;;;1.83;1.67;;;;;;;9.91;94.25;102095.09;5073869;28;20033;-80
2023/09/25 06:08:45;;;;;;;1.47;1.37;;;;;;;9.94;94.08;102097.72;5075671;28;20051;-80
2023/09/25 06:11:10;;;;;;;1.57;1.47;;;;;;;9.98;94.52;102103.78;5074484;28;20039;-80
2023/09/25 06:13:36;;;;;;;2.80;1.60;;;;;;;10.03;94.38;102100.38;5073693;28;20554;-79
2023/09/25 06:16:01;;;;;;;1.80;1.60;;;;;;;10.08;94.77;102102.13;5074855;28;20107;-79
2023/09/25 06:18:29;;;;;;;1.80;1.70;;;;;;;10.12;94.28;102103.91;5074163;28;20393;-80
2023/09/25 06:20:54;;;;;;;2.45;1.75;;;;;;;10.14;94.62;102092.69;5073735;28;20035;-80
2023/09/25 06:23:20;;;;;;;2.20;1.90;;;;;;;10.18;94.29;102089.25;5074399;28;20017;-80
2023/09/25 06:25:45;;;;;;;3.93;1.90;;;;;;;10.24;94.92;102101.41;5074460;28;20028;-80
2023/09/25 06:28:14;;;;;;;1.80;1.70;;;;;;;10.32;93.88;102106.59;5073439;28;20060;-79
2023/09/25 06:30:39;;;;;;;2.83;1.70;;;;;;;10.35;94.22;102094.53;5074394;28;20024;-80
2023/09/25 06:33:06;;;;;;;2.23;1.80;;;;;;;10.48;94.13;102110.19;5074123;28;20120;-79
2023/09/25 06:35:33;;;;;;;3.25;2.00;;;;;;;10.61;93.12;102104.22;5073331;28;20442;-80
2023/09/25 06:37:58;;;;;;;2.58;1.90;;;;;;;10.84;92.97;102106.03;5074327;28;20050;-79
2023/09/25 06:40:24;;;;;;;4.03;2.03;;;;;;;11.14;91.61;102101.81;5073728;28;20550;-80
2023/09/25 06:42:49;;;;;;;3.33;2.10;;;;;;;11.36;92.05;102105.31;5073541;28;20020;-80
2023/09/25 06:45:14;;;;;;;3.20;2.17;;;;;;;11.52;91.68;102116.59;5073999;28;20017;-79
2023/09/25 06:47:40;;;;;;;2.23;1.80;;;;;;;11.75;91.89;102113.16;5073728;28;20028;-80
2023/09/25 06:50:06;;;;;;;3.42;2.00;;;;;;;12.23;91.20;102114.88;5073004;28;20020;-80
2023/09/25 06:52:33;;;;;;;2.57;1.90;;;;;;;12.49;90.25;102113.09;5073355;28;20039;-80
2023/09/25 06:54:59;;;;;;;3.45;2.17;;;;;;;12.61;86.87;102104.38;5073283;28;20021;-80
2023/09/25 06:57:25;;;;;;;3.70;2.17;;;;;;;13.02;86.50;102106.78;5072051;28;20039;-80
2023/09/25 06:59:50;;;;;;;2.10;1.90;;;;;;;13.49;86.83;102117.84;5074061;28;20062;-80
2023/09/25 07:02:20;;;;;;;2.20;2.00;;;;;;;13.60;85.41;102110.81;5072902;28;20078;-80
2023/09/25 07:04:47;;;;;;;2.35;1.88;;;;;;;13.53;84.80;102117.81;5072642;28;20495;-80
2023/09/25 07:07:12;;;;;;;2.28;1.90;;;;;;;13.40;84.43;102113.56;5073239;28;20047;-80
2023/09/25 07:09:37;;;;;;;2.70;1.90;;;;;;;13.28;85.58;102106.66;5072488;28;20485;-77
2023/09/25 07:12:03;;;;;;;1.80;1.70;;;;;;;13.25;86.15;102115.34;5068744;28;20056;-74
2023/09/25 07:14:29;;;;;;;2.17;1.63;;;;;;;13.21;86.42;102107.56;5072493;28;20074;-81
2023/09/25 07:16:55;;;;;;;1.60;1.50;;;;;;;13.22;85.15;102109.28;5071644;28;20437;-81
2023/09/25 07:19:20;;;;;;;2.40;1.90;;;;;;;13.19;86.71;102109.28;5072198;28;20170;-81
2023/09/25 07:21:45;;;;;;;1.80;1.63;;;;;;;13.24;86.78;102112.75;5072586;28;20531;-80
2023/09/25 07:24:11;;;;;;;1.67;1.57;;;;;;;13.26;87.03;102114.47;5070105;28;20508;-82
2023/09/25 07:26:36;;;;;;;2.13;1.80;;;;;;;13.31;86.51;102113.59;5070922;28;20052;-82
2023/09/25 07:32:09;;;;;;;5.47;2.22;;;;;;;13.47;86.30;102106.56;5220372;22;20067;-80
2023/09/25 07:34:35;;;;;;;2.53;1.90;;;;;;;13.54;86.31;102100.41;5066368;28;20025;-78
2023/09/25 07:37:04;;;;;;;2.83;1.97;;;;;;;13.64;84.64;102107.28;5072458;28;20488;-78
2023/09/25 07:39:30;;;;;;;2.92;2.00;;;;;;;13.72;85.66;102097.66;5072029;28;20382;-78
2023/09/25 07:41:56;;;;;;;3.33;2.17;;;;;;;13.81;82.50;102101.06;5073087;28;20025;-80
2023/09/25 07:44:25;;;;;;;3.33;2.40;;;;;;;13.86;84.45;102096.66;5064332;28;20103;-81
2023/09/25 07:46:56;;;;;;;2.85;2.00;;;;;;;13.93;83.40;102097.47;5069916;28;20035;-77
2023/09/25 07:49:22;;;;;;;2.85;2.10;;;;;;;14.04;83.57;102104.34;5072273;28;20016;-82
2023/09/25 07:51:48;;;;;;;3.23;1.90;;;;;;;14.04;83.43;102086.06;5072683;28;20039;-78
2023/09/25 07:54:14;;;;;;;1.95;1.77;;;;;;;14.20;82.58;102106.78;5072927;28;20031;-78
2023/09/25 07:56:40;;;;;;;1.63;1.52;;;;;;;14.30;83.06;102097.97;5072581;28;20118;-81
2023/09/25 07:59:07;;;;;;;3.13;1.90;;;;;;;14.39;80.62;102094.41;5071594;28;20028;-83
2023/09/25 08:01:38;;;;;;;2.83;1.80;;;;;;;14.44;82.15;102107.41;5071889;28;20470;-82
2023/09/25 08:04:24;;;;;;;2.67;1.80;;;;;;;14.51;80.14;102119.53;5071297;28;20033;-82
2023/09/25 08:06:52;;;;;;;1.98;1.70;;;;;;;14.46;82.13;102093.47;5070563;28;20056;-80
2023/09/25 08:09:19;;;;;;;3.17;1.63;;;;;;;14.63;81.65;102113.28;5071982;28;20035;-80
2023/09/25 08:11:45;;;;;;;;;;;;;;;14.69;80.27;102115.88;5072753;28;20017;-80
2023/09/25 08:14:10;;;;;;;2.33;1.50;;;;;;;14.76;81.96;102112.28;5070199;28;19912;-80
2023/09/25 08:16:38;;;;;;;2.00;1.70;;;;;;;14.82;79.79;102117.41;5072536;28;20094;-80
2023/09/25 08:19:04;;;;;;;2.10;1.90;;;;;;;14.88;78.29;102108.63;5072304;28;20454;-84
2023/09/25 08:21:30;;;;;;;2.07;1.80;;;;;;;14.93;79.31;102114.69;5071239;28;20038;-83
2023/09/25 08:23:56;;;;;;;1.80;1.70;;;;;;;15.02;78.74;102115.44;5072438;28;20056;-84
2023/09/25 08:26:21;;;;;;;2.00;1.80;;;;;;;15.10;79.86;102117.06;5069771;28;20044;-82
2023/09/25 08:28:46;;;;;;;2.70;1.90;;;;;;;15.16;81.10;102113.50;5051619;28;20029;-82
2023/09/25 08:31:14;;;;;;;2.90;1.80;;;;;;;15.22;75.83;102110.78;5052661;28;20028;-83
2023/09/25 08:33:40;;;;;;;1.88;1.63;;;;;;;15.27;75.99;102108.09;5072048;28;20029;-80
2023/09/25 08:36:26;;;;;;;2.60;1.85;;;;;;;15.34;75.65;102101.03;5070915;28;20082;-80
2023/09/25 08:38:51;;;;;;;3.60;1.90;;;;;;;15.39;74.61;102088.75;5057073;28;20036;-77
2023/09/25 08:41:19;;;;;;;3.53;1.80;;;;;;;15.51;77.29;102083.34;5054850;28;20016;-76
2023/09/25 08:44:02;;;;;;;2.67;1.80;;;;;;;15.69;74.46;102095.25;5072291;28;20107;-80
2023/09/25 08:46:28;;;;;;;2.50;1.90;;;;;;;15.85;75.33;102088.03;5072445;28;20367;-76
2023/09/25 08:48:56;;;;;;;2.17;1.90;;;;;;;15.91;75.96;102084.44;5071944;28;20028;-78
2023/09/25 08:51:23;;;;;;;2.38;1.80;;;;;;;16.05;74.86;102081.56;5072111;28;20081;-77
2023/09/25 08:53:49;;;;;;;2.08;1.70;;;;;;;16.22;74.02;102091.72;5070885;28;20497;-77
2023/09/25 08:56:15;;;;;;;2.97;1.60;;;;;;;16.35;76.43;102089.72;5070797;28;20068;-80
2023/09/25 08:58:50;;;;;;;1.95;1.67;;;;;;;16.44;74.52;102083.44;5072323;28;20021;-80
2023/09/25 09:01:17;;;;;;;2.03;1.77;;;;;;;16.57;74.27;102095.41;5072133;28;20021;-78
2023/09/25 09:03:50;;;;;;;2.28;1.90;;;;;;;16.66;72.48;102094.38;5071359;28;20170;-78
2023/09/25 09:06:20;;;;;;;2.92;1.85;;;;;;;16.70;72.04;102082.91;5071248;28;20115;-79
2023/09/25 09:08:47;;;;;;;2.35;1.85;;;;;;;16.82;71.93;102090.50;5071607;28;20032;-79
2023/09/25 09:11:28;;;;;;;3.38;2.20;;;;;;;16.89;70.36;102085.13;5070999;28;20024;-78
2023/09/25 09:13:54;;;;;;;4.45;2.05;;;;;;;17.01;71.41;102090.13;5072072;28;20063;-81
2023/09/25 09:16:19;;;;;;;3.35;1.90;;;;;;;17.02;67.21;102086.59;5067366;28;20489;-78
2023/09/25 09:18:46;;;;;;;2.03;1.80;;;;;;;17.14;70.23;102093.34;5072606;28;20028;-79
2023/09/25 09:21:24;;;;;;;2.67;1.98;;;;;;;17.18;68.89;102083.63;5075167;28;20052;-79
2023/09/25 09:23:50;;;;;;;2.60;1.90;;;;;;;17.19;71.98;102080.97;5074576;28;20146;-78
2023/09/25 09:26:16;;;;;;;2.50;1.80;;;;;;;17.29;72.23;102085.09;5075526;28;20107;-80
2023/09/25 09:28:43;;;;;;;3.35;1.90;;;;;;;17.32;70.40;102089.44;5075338;28;20025;-84
2023/09/25 09:31:10;;;;;;;1.95;1.60;;;;;;;17.33;73.58;102090.28;5074442;28;20250;-81
2023/09/25 09:33:42;;;;;;;1.38;1.27;;;;;;;17.32;72.01;102094.69;5075222;28;20043;-82
2023/09/25 09:36:15;;;;;;;2.30;1.85;;;;;;;17.26;69.30;102097.44;5075038;28;20109;-78
2023/09/25 09:38:46;;;;;;;2.33;1.90;;;;;;;17.20;70.50;102089.72;5074826;28;20069;-78
2023/09/25 09:41:13;;;;;;;2.88;1.90;;;;;;;17.23;71.35;102085.25;5075154;28;20052;-74
2023/09/25 09:43:38;;;;;;;2.35;1.85;;;;;;;17.37;71.72;102095.41;5075149;28;20036;-80
2023/09/25 09:46:04;;;;;;;2.47;1.90;;;;;;;17.47;70.71;102089.94;5074187;28;20027;-79
2023/09/25 09:48:31;;;;;;;2.00;1.80;;;;;;;17.59;71.35;102084.38;5075517;28;20043;-80
2023/09/25 09:50:59;;;;;;;2.47;1.75;;;;;;;17.68;69.89;102089.41;5075471;28;20020;-80
2023/09/25 09:53:28;;;;;;;2.08;1.80;;;;;;;17.80;72.44;102090.88;5074156;28;20376;-81
2023/09/25 09:55:53;;;;;;;3.90;1.60;;;;;;;17.87;70.42;102092.41;5074853;28;20466;-75
2023/09/25 09:58:21;;;;;;;1.97;1.60;;;;;;;17.98;71.63;102094.81;5074772;28;20040;-80
2023/09/25 10:00:47;;;;;;;2.25;1.60;;;;;;;18.08;70.51;102097.19;5073976;28;20025;-79
2023/09/25 10:03:15;;;;;;;2.05;1.60;;;;;;;18.15;71.11;102102.25;5074335;28;20028;-84
2023/09/25 10:05:45;;;;;;;1.60;1.50;;;;;;;18.21;68.25;102109.94;5074285;28;20055;-79
2023/09/25 10:08:12;;;;;;;2.40;1.92;;;;;;;18.27;70.95;102106.28;5074542;28;20473;-83
2023/09/25 10:21:17;;;;;;;1.48;1.38;;;;;;;18.69;71.82;102099.84;5074104;28;20316;-79
2023/09/25 10:24:23;;;;;;;1.60;1.50;;;;;;;18.65;68.34;102075.44;5074706;28;20028;-79
2023/09/25 10:26:48;;;;;;;2.70;1.55;;;;;;;18.82;65.41;102085.44;5070512;28;20401;-81
2023/09/25 10:29:15;;;;;;;2.20;1.67;;;;;;;18.90;70.70;102087.84;5073864;28;20027;-80
2023/09/25 10:31:49;;;;;;;;;;;;;;;18.98;69.59;102085.84;5073943;28;20393;-81
2023/09/25 10:34:14;;;;;;;2.10;1.70;;;;;;;19.08;70.33;102096.94;5073996;28;19912;-80
2023/09/25 10:36:42;;;;;;;1.80;1.60;;;;;;;19.19;68.95;102099.25;5073787;28;20024;-83
2023/09/25 10:39:09;;;;;;;2.08;1.67;;;;;;;19.19;67.91;102098.41;5074103;28;20547;-83
2023/09/25 10:41:35;;;;;;;1.90;1.63;;;;;;;19.28;69.74;102101.56;5073545;28;20112;-83
2023/09/25 10:44:04;;;;;;;2.55;1.85;;;;;;;19.36;67.16;102097.84;5074054;28;20029;-79
2023/09/25 10:46:32;;;;;;;1.63;1.52;;;;;;;19.38;68.37;102096.00;5073602;28;20074;-83
2023/09/25 10:48:58;;;;;;;1.60;1.50;;;;;;;19.45;69.14;102087.03;5073081;28;20457;-79
2023/09/25 10:51:23;;;;;;;1.63;1.53;;;;;;;19.57;69.37;102078.72;5073553;28;20039;-79
2023/09/25 10:53:48;;;;;;;1.90;1.70;;;;;;;19.66;66.76;102074.88;5074151;28;20067;-81
2023/09/25 10:56:15;;;;;;;1.83;1.63;;;;;;;19.77;67.31;102077.16;5072785;28;20475;-81
2023/09/25 10:58:47;;;;;;;1.85;1.60;;;;;;;19.80;66.04;102071.81;5074109;28;20393;-82
2023/09/25 11:01:31;;;;;;;1.65;1.55;;;;;;;19.81;67.23;102064.75;5065620;28;20039;-80
2023/09/25 11:04:09;;;;;;;1.95;1.42;;;;;;;19.98;68.60;102080.00;5073155;28;20020;-81
2023/09/25 11:06:40;;;;;;;1.52;1.38;;;;;;;20.07;66.18;102082.31;5073712;28;20465;-81
2023/09/25 11:09:05;;;;;;;1.55;1.20;;;;;;;20.17;68.47;102096.88;5072797;28;20091;-80
2023/09/25 11:11:31;;;;;;;1.10;1.00;;;;;;;20.18;67.46;102088.03;5073246;28;20052;-82
2023/09/25 11:13:57;;;;;;;1.48;1.38;;;;;;;20.18;64.60;102093.31;5073746;28;20028;-82
2023/09/25 11:16:23;;;;;;;1.42;1.20;;;;;;;20.24;65.91;102102.78;5072538;28;20519;-85
2023/09/25 11:18:50;;;;;;;0.80;0.80;;;;;;;20.30;67.93;102099.06;5073405;28;20487;-85
2023/09/25 11:21:36;;;;;;;1.52;1.20;;;;;;;20.35;66.15;102100.63;5072571;28;20032;-84
2023/09/25 11:24:05;;;;;;;1.42;1.20;;;;;;;20.40;63.53;102084.63;5072786;28;20033;-84
2023/09/25 11:26:35;;;;;;;1.23;1.08;;;;;;;20.53;66.51;102092.94;5073768;28;20439;-78
2023/09/25 11:29:01;;;;;;;1.73;1.42;;;;;;;20.63;64.83;102091.69;5073523;28;20071;-78
2023/09/25 11:31:27;;;;;;;1.60;1.50;;;;;;;20.70;64.61;102102.00;5072713;28;20040;-77
2023/09/25 11:33:52;;;;;;;2.57;1.50;;;;;;;20.71;63.83;102094.03;5074313;28;20039;-77
2023/09/25 11:36:18;;;;;;;1.53;1.43;;;;;;;20.72;65.53;102092.25;5073265;28;20078;-76
2023/09/25 11:38:49;;;;;;;2.30;1.50;;;;;;;20.75;64.19;102098.28;5073002;28;20081;-81
2023/09/25 11:41:15;;;;;;;1.77;1.52;;;;;;;20.77;62.43;102098.25;5072761;28;20032;-78
2023/09/25 11:43:40;;;;;;;1.80;1.43;;;;;;;20.77;65.82;102091.19;5073161;28;20024;-80